Time;durP1;ratioP1;P1;durP2;ratioP2;P2;SDS_P1;SDS_P2;PMS_P1;PMS_P2;Temp;Humidity;BMP_temperature;BMP_pressure;BME280_temperature;BME280_humidity;BME280_pressure;Samples;Min_cycle;Max_cycle;Signal;HPM_P1;HPM_P2
2021/09/25 00:02:07;;;;;;;9.50;6.83;;;9.90;99.90;;;;;;5036823;28;20727;-81
2021/09/25 00:04:33;;;;;;;6.87;6.27;;;9.90;99.90;;;;;;5035395;28;20537;-81
2021/09/25 00:06:59;;;;;;;7.27;6.27;;;10.10;99.90;;;;;;5032395;28;20260;-82
2021/09/25 00:09:25;;;;;;;7.38;6.30;;;9.80;99.90;;;;;;5032150;28;20564;-82
2021/09/25 00:11:51;;;;;;;7.20;6.50;;;10.20;99.90;;;;;;5033644;28;20184;-81
2021/09/25 00:14:17;;;;;;;8.63;7.07;;;9.90;99.90;;;;;;5039616;28;20485;-81
2021/09/25 00:16:43;;;;;;;8.33;6.47;;;10.20;99.90;;;;;;5031917;28;20214;-81
2021/09/25 00:19:08;;;;;;;7.90;7.20;;;10.00;99.90;;;;;;5032099;28;20434;-82
2021/09/25 00:21:34;;;;;;;7.60;6.90;;;9.60;99.90;;;;;;5032800;28;20722;-82
2021/09/25 00:23:59;;;;;;;8.03;6.67;;;9.50;99.90;;;;;;5032698;28;20187;-82
2021/09/25 00:26:26;;;;;;;7.63;6.73;;;9.60;99.90;;;;;;5038436;28;20329;-82
2021/09/25 00:28:55;;;;;;;7.13;6.43;;;9.90;99.90;;;;;;5031736;28;20560;-82
2021/09/25 00:31:21;;;;;;;9.18;7.38;;;9.70;99.90;;;;;;5031825;28;20271;-82
2021/09/25 00:33:47;;;;;;;8.18;6.60;;;9.50;99.90;;;;;;5034361;28;20191;-82
2021/09/25 00:36:12;;;;;;;7.80;6.87;;;9.80;99.90;;;;;;5031601;28;20481;-81
2021/09/25 00:38:39;;;;;;;8.10;7.10;;;9.70;99.90;;;;;;5031712;28;20279;-82
2021/09/25 00:41:06;;;;;;;8.45;7.15;;;9.70;99.90;;;;;;5036590;28;20215;-81
2021/09/25 00:43:32;;;;;;;7.63;6.78;;;9.60;99.90;;;;;;5032139;28;20238;-82
2021/09/25 00:45:57;;;;;;;8.45;7.20;;;9.80;99.90;;;;;;5031350;28;20258;-82
2021/09/25 00:48:23;;;;;;;8.60;6.67;;;10.00;99.90;;;;;;5033400;28;20194;-82
2021/09/25 00:50:49;;;;;;;7.37;6.20;;;9.90;99.90;;;;;;5032764;28;20195;-82
2021/09/25 00:53:15;;;;;;;7.50;6.70;;;10.00;99.90;;;;;;5035573;28;20970;-82
2021/09/25 00:55:40;;;;;;;8.87;7.30;;;9.70;99.90;;;;;;5033487;28;20179;-82
2021/09/25 00:58:06;;;;;;;8.10;7.23;;;10.00;99.90;;;;;;5031295;28;20335;-81
2021/09/25 01:00:34;;;;;;;7.47;6.43;;;9.70;99.90;;;;;;5031280;28;20246;-81
2021/09/25 01:03:00;;;;;;;8.20;7.18;;;9.70;99.90;;;;;;5031455;28;20181;-81
2021/09/25 01:05:26;;;;;;;7.57;6.63;;;9.70;99.90;;;;;;5031562;28;20697;-81
2021/09/25 01:07:52;;;;;;;7.27;6.57;;;9.60;99.90;;;;;;5038367;28;20472;-81
2021/09/25 01:10:19;;;;;;;7.35;6.28;;;9.70;99.90;;;;;;5031576;28;20188;-81
2021/09/25 01:12:46;;;;;;;7.15;6.40;;;9.60;99.90;;;;;;5030798;28;20222;-82
2021/09/25 01:15:12;;;;;;;9.20;7.10;;;9.40;99.90;;;;;;5028257;28;20656;-82
2021/09/25 01:17:38;;;;;;;7.55;6.85;;;9.50;99.90;;;;;;5031312;28;20233;-82
2021/09/25 01:20:06;;;;;;;9.67;7.60;;;9.50;99.90;;;;;;5022259;28;20199;-81
2021/09/25 01:22:32;;;;;;;8.13;6.78;;;9.70;99.90;;;;;;5029432;28;20321;-82
2021/09/25 01:24:57;;;;;;;7.93;7.20;;;9.40;99.90;;;;;;5024915;28;20626;-80
2021/09/25 01:27:23;;;;;;;7.07;6.37;;;9.40;99.90;;;;;;5022542;28;20192;-80
2021/09/25 01:29:48;;;;;;;7.27;6.47;;;9.30;99.90;;;;;;5025330;28;20176;-81
2021/09/25 01:32:14;;;;;;;7.43;5.47;;;9.30;99.90;;;;;;5028876;28;20281;-80
2021/09/25 01:34:40;;;;;;;7.50;6.70;;;9.60;99.90;;;;;;5025232;28;20547;-81
2021/09/25 01:37:06;;;;;;;8.00;7.10;;;9.70;99.90;;;;;;5022644;28;20699;-80
2021/09/25 01:39:31;;;;;;;7.00;6.27;;;9.30;99.90;;;;;;5029233;28;20182;-80
2021/09/25 01:42:00;;;;;;;7.60;6.60;;;9.50;99.90;;;;;;5034284;28;20701;-80
2021/09/25 01:44:26;;;;;;;7.35;6.65;;;9.30;99.90;;;;;;5026898;28;20400;-80
2021/09/25 01:46:53;;;;;;;7.50;6.70;;;9.30;99.90;;;;;;5024160;28;20198;-81
2021/09/25 01:49:19;;;;;;;6.93;5.93;;;9.10;99.90;;;;;;5024484;28;20265;-80
2021/09/25 01:51:45;;;;;;;7.43;6.60;;;9.30;99.90;;;;;;5027005;28;20287;-81
2021/09/25 01:54:12;;;;;;;8.57;7.00;;;9.10;99.90;;;;;;5030100;28;20788;-81
2021/09/25 01:56:39;;;;;;;7.82;6.95;;;9.20;99.90;;;;;;5021540;28;20759;-80
2021/09/25 01:59:05;;;;;;;8.35;7.55;;;9.20;99.90;;;;;;5022014;28;20194;-80
2021/09/25 02:01:31;;;;;;;9.30;7.43;;;9.40;99.90;;;;;;5023919;28;20211;-80
2021/09/25 02:03:57;;;;;;;8.03;7.23;;;9.30;99.90;;;;;;5031254;28;20218;-80
2021/09/25 02:06:22;;;;;;;10.93;8.33;;;9.30;99.90;;;;;;5024752;28;20628;-81
2021/09/25 02:08:48;;;;;;;8.33;7.37;;;9.40;99.90;;;;;;5023688;28;20191;-80
2021/09/25 02:11:14;;;;;;;10.60;7.43;;;9.50;99.90;;;;;;5019829;28;20214;-80
2021/09/25 02:13:40;;;;;;;8.57;7.40;;;9.50;99.90;;;;;;5026288;28;20191;-80
2021/09/25 02:16:05;;;;;;;8.45;7.63;;;9.30;99.90;;;;;;5028987;28;20674;-81
2021/09/25 02:18:32;;;;;;;8.30;7.20;;;9.60;99.90;;;;;;5023499;28;20441;-80
2021/09/25 02:20:57;;;;;;;8.80;7.50;;;9.50;99.90;;;;;;5023033;28;20351;-80
2021/09/25 02:23:23;;;;;;;9.20;7.40;;;9.70;99.90;;;;;;5027563;28;20193;-80
2021/09/25 02:25:48;;;;;;;6.90;6.20;;;9.50;99.90;;;;;;5025957;28;20184;-80
2021/09/25 02:28:14;;;;;;;8.00;6.50;;;9.40;99.90;;;;;;5024422;28;20185;-80
2021/09/25 02:30:40;;;;;;;7.63;6.93;;;9.40;99.90;;;;;;5031034;28;20652;-80
2021/09/25 02:33:05;;;;;;;8.53;6.97;;;9.30;99.90;;;;;;5033594;28;20191;-80
2021/09/25 02:35:31;;;;;;;7.33;6.63;;;9.30;99.90;;;;;;5020666;28;20448;-80
2021/09/25 02:37:57;;;;;;;9.13;6.90;;;9.20;99.90;;;;;;5023471;28;20553;-81
2021/09/25 02:40:23;;;;;;;8.73;7.43;;;9.20;99.90;;;;;;5023090;28;20701;-80
2021/09/25 02:42:50;;;;;;;9.60;7.18;;;9.30;99.90;;;;;;5020679;28;20183;-80
2021/09/25 02:45:16;;;;;;;8.40;7.10;;;9.30;99.90;;;;;;5027243;28;20670;-80
2021/09/25 02:47:42;;;;;;;8.48;7.35;;;9.20;99.90;;;;;;5024802;28;20222;-81
2021/09/25 02:50:10;;;;;;;10.23;7.80;;;9.50;99.90;;;;;;5024001;28;20264;-80
2021/09/25 02:52:35;;;;;;;8.68;7.75;;;9.30;99.90;;;;;;5032921;28;20325;-80
2021/09/25 02:55:01;;;;;;;8.07;7.27;;;9.10;99.90;;;;;;5020450;28;20282;-80
2021/09/25 02:57:26;;;;;;;9.47;7.30;;;9.30;99.90;;;;;;5021977;28;20773;-80
2021/09/25 02:59:52;;;;;;;8.03;7.13;;;9.40;99.90;;;;;;5022207;28;20188;-80
2021/09/25 03:02:18;;;;;;;6.30;5.70;;;9.40;99.90;;;;;;5023911;28;20183;-80
2021/09/25 03:04:44;;;;;;;7.60;6.80;;;9.30;99.90;;;;;;5030932;28;20577;-80
2021/09/25 03:07:09;;;;;;;8.20;6.43;;;9.30;99.90;;;;;;5029750;28;20192;-80
2021/09/25 03:09:35;;;;;;;7.43;6.57;;;9.30;99.90;;;;;;5020507;28;20645;-80
2021/09/25 03:12:01;;;;;;;8.13;6.37;;;9.10;99.90;;;;;;5020541;28;20187;-79
2021/09/25 03:14:26;;;;;;;7.63;6.83;;;9.10;99.90;;;;;;5022146;28;20688;-80
2021/09/25 03:16:52;;;;;;;7.30;6.23;;;9.10;99.90;;;;;;5026029;28;20500;-80
2021/09/25 03:19:18;;;;;;;9.60;6.68;;;9.00;99.90;;;;;;5023822;28;20183;-80
2021/09/25 03:21:44;;;;;;;8.50;6.40;;;9.10;99.90;;;;;;5021701;28;20229;-80
2021/09/25 03:24:10;;;;;;;8.00;6.67;;;8.90;99.90;;;;;;5025902;28;20425;-80
2021/09/25 03:26:35;;;;;;;6.80;6.20;;;8.80;99.90;;;;;;5022551;28;20270;-80
2021/09/25 03:29:01;;;;;;;8.40;6.53;;;8.80;99.90;;;;;;5022054;28;20278;-80
2021/09/25 03:31:27;;;;;;;7.67;6.30;;;8.80;99.90;;;;;;5025662;28;20222;-80
2021/09/25 03:33:52;;;;;;;7.80;7.00;;;8.70;99.90;;;;;;5027363;28;20642;-80
2021/09/25 03:36:18;;;;;;;7.40;6.43;;;8.50;99.90;;;;;;5024399;28;20191;-80
2021/09/25 03:38:43;;;;;;;9.97;6.90;;;8.80;99.90;;;;;;5024447;28;20192;-80
2021/09/25 03:41:09;;;;;;;7.23;6.50;;;8.70;99.90;;;;;;5027305;28;20215;-81
2021/09/25 03:43:35;;;;;;;7.07;6.37;;;8.60;99.90;;;;;;5030204;28;20184;-80
2021/09/25 03:46:00;;;;;;;7.60;6.90;;;8.70;99.90;;;;;;5028209;28;20207;-80
2021/09/25 03:48:26;;;;;;;8.07;6.37;;;8.70;99.90;;;;;;5024679;28;20187;-80
2021/09/25 03:50:53;;;;;;;9.33;7.93;;;8.50;99.90;;;;;;5025906;28;20210;-80
2021/09/25 03:53:19;;;;;;;8.55;7.25;;;8.70;99.90;;;;;;5035023;28;20270;-79
2021/09/25 03:55:45;;;;;;;8.55;7.68;;;8.60;99.90;;;;;;5030422;28;20183;-80
2021/09/25 03:58:10;;;;;;;8.73;7.10;;;8.60;99.90;;;;;;5028561;28;20529;-80
2021/09/25 04:00:42;;;;;;;8.30;7.40;;;8.60;99.90;;;;;;5025903;28;20202;-79
2021/09/25 04:03:11;;;;;;;8.45;7.30;;;8.80;99.90;;;;;;5028554;28;20182;-80
2021/09/25 04:05:38;;;;;;;8.60;6.40;;;8.70;99.90;;;;;;5034103;28;20313;-79
2021/09/25 04:08:03;;;;;;;7.93;6.43;;;8.50;99.90;;;;;;5029054;28;20619;-80
2021/09/25 04:10:29;;;;;;;9.13;7.10;;;8.60;99.90;;;;;;5026135;28;20457;-80
2021/09/25 04:12:55;;;;;;;8.90;8.00;;;8.70;99.90;;;;;;5028060;28;20282;-79
2021/09/25 04:15:21;;;;;;;7.93;7.20;;;8.70;99.90;;;;;;5025600;28;20183;-80
2021/09/25 04:17:46;;;;;;;7.28;6.15;;;8.40;99.90;;;;;;5028502;28;20194;-80
2021/09/25 04:20:12;;;;;;;8.37;7.20;;;8.70;99.90;;;;;;5027466;28;20191;-80
2021/09/25 04:22:38;;;;;;;7.13;6.35;;;8.40;99.90;;;;;;5023459;28;20214;-80
2021/09/25 04:25:04;;;;;;;6.37;5.70;;;8.30;99.90;;;;;;5023252;28;20273;-80
2021/09/25 04:27:29;;;;;;;6.80;6.03;;;8.60;99.90;;;;;;5029066;28;20218;-80
2021/09/25 04:29:57;;;;;;;6.50;5.90;;;8.30;99.90;;;;;;5029225;28;20176;-80
2021/09/25 04:32:23;;;;;;;9.88;6.97;;;8.40;99.90;;;;;;5029517;28;20194;-80
2021/09/25 04:34:48;;;;;;;7.70;6.07;;;8.40;99.90;;;;;;5023612;28;20180;-80
2021/09/25 04:37:14;;;;;;;7.30;6.40;;;8.40;99.90;;;;;;5022961;28;20425;-80
2021/09/25 04:39:40;;;;;;;8.27;7.47;;;8.50;99.90;;;;;;5028908;28;20541;-80
2021/09/25 04:42:05;;;;;;;7.97;6.80;;;8.10;99.90;;;;;;5032593;28;20202;-80
2021/09/25 04:44:31;;;;;;;7.70;5.97;;;8.30;99.90;;;;;;5030800;28;20584;-80
2021/09/25 04:46:56;;;;;;;9.73;7.17;;;8.30;99.90;;;;;;5031071;28;20187;-80
2021/09/25 04:49:22;;;;;;;7.50;6.40;;;8.30;99.90;;;;;;5023282;28;20637;-80
2021/09/25 04:51:48;;;;;;;7.90;6.80;;;8.30;99.90;;;;;;5028623;28;20184;-80
2021/09/25 04:54:13;;;;;;;7.40;6.00;;;8.30;99.90;;;;;;5033662;28;20212;-80
2021/09/25 04:56:39;;;;;;;8.77;7.23;;;8.20;99.90;;;;;;5026021;28;20642;-80
2021/09/25 04:59:04;;;;;;;7.63;6.60;;;8.30;99.90;;;;;;5023810;28;20632;-79
2021/09/25 05:01:31;;;;;;;7.70;6.90;;;8.60;99.90;;;;;;5026900;28;20213;-80
2021/09/25 05:04:00;;;;;;;8.20;6.70;;;8.30;99.90;;;;;;5027801;28;20179;-80
2021/09/25 05:06:26;;;;;;;7.65;6.75;;;8.20;99.90;;;;;;5028285;28;20231;-80
2021/09/25 05:08:52;;;;;;;8.40;6.57;;;8.40;99.90;;;;;;5024379;28;20187;-80
2021/09/25 05:11:17;;;;;;;8.33;7.07;;;8.40;99.90;;;;;;5023353;28;20631;-80
2021/09/25 05:13:43;;;;;;;7.57;6.63;;;8.40;99.90;;;;;;5022062;28;20184;-80
2021/09/25 05:16:08;;;;;;;8.73;7.10;;;8.60;99.90;;;;;;5024001;28;20252;-80
2021/09/25 05:18:34;;;;;;;8.27;7.27;;;8.70;99.90;;;;;;5034753;28;20616;-80
2021/09/25 05:20:59;;;;;;;7.73;6.60;;;8.60;99.90;;;;;;5028393;28;20725;-80
2021/09/25 05:23:25;;;;;;;8.00;7.13;;;8.30;99.90;;;;;;5022635;28;20175;-80
2021/09/25 05:25:51;;;;;;;7.85;6.50;;;8.50;99.90;;;;;;5023745;28;20271;-80
2021/09/25 05:28:16;;;;;;;9.43;6.63;;;8.40;99.90;;;;;;5027154;28;20634;-80
2021/09/25 05:30:42;;;;;;;8.87;7.20;;;8.40;99.90;;;;;;5027202;28;20602;-80
2021/09/25 05:33:08;;;;;;;8.27;6.70;;;8.70;99.90;;;;;;5030172;28;20198;-80
2021/09/25 05:35:33;;;;;;;8.90;7.23;;;8.40;99.90;;;;;;5022023;28;20198;-80
2021/09/25 05:37:59;;;;;;;7.20;6.20;;;8.40;99.90;;;;;;5031314;28;20236;-80
2021/09/25 05:40:24;;;;;;;7.87;6.37;;;8.80;99.90;;;;;;5032648;28;20680;-80
2021/09/25 05:42:50;;;;;;;7.00;6.17;;;8.60;99.90;;;;;;5027715;28;20210;-80
2021/09/25 05:45:16;;;;;;;8.50;6.90;;;8.40;99.90;;;;;;5025035;28;20203;-80
2021/09/25 05:47:42;;;;;;;7.20;6.40;;;8.60;99.90;;;;;;5026136;28;20214;-79
2021/09/25 05:50:08;;;;;;;7.90;6.47;;;8.60;99.90;;;;;;5028337;28;20211;-81
2021/09/25 05:52:34;;;;;;;10.32;7.25;;;8.60;99.90;;;;;;5034872;28;20189;-80
2021/09/25 05:54:59;;;;;;;11.03;7.47;;;8.30;99.90;;;;;;5026769;28;20270;-79
2021/09/25 05:57:25;;;;;;;10.70;7.80;;;8.70;99.90;;;;;;5018774;28;20213;-74
2021/09/25 05:59:50;;;;;;;9.60;8.10;;;8.70;99.90;;;;;;5025612;28;20183;-74
2021/09/25 06:02:16;;;;;;;10.70;9.37;;;8.50;99.90;;;;;;5028511;28;20688;-74
2021/09/25 06:04:41;;;;;;;15.37;9.30;;;8.80;99.90;;;;;;5021600;28;20187;-74
2021/09/25 06:07:11;;;;;;;12.70;11.00;;;8.50;99.90;;;;;;5026528;28;20552;-74
2021/09/25 06:09:37;;;;;;;12.77;11.00;;;8.80;99.90;;;;;;5022050;28;20187;-74
2021/09/25 06:12:04;;;;;;;12.93;10.73;;;8.70;99.90;;;;;;5021227;28;20700;-74
2021/09/25 06:14:30;;;;;;;15.05;11.70;;;8.80;99.90;;;;;;5022117;28;20222;-75
2021/09/25 06:16:56;;;;;;;27.30;21.48;;;9.00;99.90;;;;;;5026626;28;20175;-87
2021/09/25 06:19:22;;;;;;;31.63;25.70;;;9.00;99.90;;;;;;5026853;28;20250;-73
2021/09/25 06:21:47;;;;;;;33.33;25.27;;;8.70;99.90;;;;;;5025962;28;20245;-74
2021/09/25 06:24:13;;;;;;;30.57;22.60;;;8.80;99.90;;;;;;5020991;28;20237;-74
2021/09/25 06:26:39;;;;;;;30.87;23.00;;;9.20;99.90;;;;;;5022328;28;20381;-74
2021/09/25 06:29:05;;;;;;;34.83;25.60;;;9.20;99.90;;;;;;5025829;28;20602;-74
2021/09/25 06:31:31;;;;;;;38.00;27.60;;;9.40;99.90;;;;;;5026869;28;20179;-73
2021/09/25 06:33:56;;;;;;;34.17;25.77;;;9.50;99.90;;;;;;5026122;28;20430;-73
2021/09/25 06:36:22;;;;;;;35.77;25.07;;;9.60;99.90;;;;;;5020753;28;20487;-73
2021/09/25 06:38:47;;;;;;;29.70;21.37;;;9.60;99.90;;;;;;5021320;28;20569;-73
2021/09/25 06:41:13;;;;;;;23.53;18.00;;;10.00;99.90;;;;;;5024708;28;20618;-73
2021/09/25 06:43:38;;;;;;;20.60;16.27;;;10.20;99.90;;;;;;5026215;28;20225;-73
2021/09/25 06:46:05;;;;;;;18.60;14.17;;;10.50;99.90;;;;;;5022309;28;20208;-73
2021/09/25 06:48:31;;;;;;;16.35;12.75;;;10.50;99.90;;;;;;5023456;28;20210;-74
2021/09/25 06:50:56;;;;;;;22.07;18.20;;;10.70;99.90;;;;;;5027478;28;20191;-73
2021/09/25 06:53:22;;;;;;;25.43;19.47;;;10.80;99.90;;;;;;5024589;28;20241;-73
2021/09/25 06:55:47;;;;;;;26.57;21.47;;;11.10;99.90;;;;;;5025763;28;20189;-73
2021/09/25 06:58:13;;;;;;;21.60;18.57;;;11.50;99.90;;;;;;5024623;28;20189;-73
2021/09/25 07:00:44;;;;;;;17.90;15.77;;;11.80;99.90;;;;;;5024754;28;20675;-73
2021/09/25 07:03:10;;;;;;;13.85;11.60;;;11.70;99.90;;;;;;5025920;28;20595;-73
2021/09/25 07:05:35;;;;;;;11.53;9.40;;;12.10;99.90;;;;;;5034728;28;20313;-74
2021/09/25 07:08:01;;;;;;;10.10;9.10;;;12.30;99.90;;;;;;5026951;28;20191;-72
2021/09/25 07:10:26;;;;;;;9.70;8.80;;;12.30;99.90;;;;;;5024187;28;20190;-73
2021/09/25 07:12:52;;;;;;;8.00;7.20;;;12.40;99.90;;;;;;5024270;28;20693;-73
2021/09/25 07:15:17;;;;;;;7.93;7.13;;;12.70;99.90;;;;;;5026099;28;20222;-84
2021/09/25 07:17:43;;;;;;;9.23;8.20;;;12.60;99.90;;;;;;5020235;28;20668;-73
2021/09/25 07:20:09;;;;;;;9.00;7.33;;;12.60;99.90;;;;;;5021839;28;20476;-74
2021/09/25 07:22:35;;;;;;;7.37;6.67;;;12.80;99.90;;;;;;5027884;28;20240;-74
2021/09/25 07:25:00;;;;;;;8.50;7.00;;;12.90;99.90;;;;;;5036405;28;20471;-74
2021/09/25 07:27:26;;;;;;;8.07;7.07;;;13.00;99.90;;;;;;5020854;28;20426;-75
2021/09/25 07:29:52;;;;;;;7.90;7.13;;;13.40;99.90;;;;;;5025214;28;20186;-74
2021/09/25 07:32:19;;;;;;;9.40;7.33;;;13.10;99.90;;;;;;5022240;28;20479;-73
2021/09/25 07:34:45;;;;;;;7.13;6.43;;;13.60;99.90;;;;;;5030347;28;20432;-74
2021/09/25 07:37:11;;;;;;;6.83;6.13;;;13.80;99.90;;;;;;5030839;28;20802;-73
2021/09/25 07:39:37;;;;;;;6.83;6.23;;;13.70;99.90;;;;;;5031067;28;20434;-73
2021/09/25 07:42:03;;;;;;;7.00;5.80;;;14.00;99.90;;;;;;5021370;28;20840;-74
2021/09/25 07:44:29;;;;;;;7.37;6.27;;;14.00;99.90;;;;;;5028536;28;20445;-74
2021/09/25 07:46:55;;;;;;;6.93;6.33;;;14.40;99.90;;;;;;5024356;28;20422;-74
2021/09/25 07:49:20;;;;;;;7.70;6.90;;;14.60;99.90;;;;;;5029731;28;20600;-74
2021/09/25 07:51:46;;;;;;;7.53;6.70;;;14.50;99.90;;;;;;5032067;28;20186;-82
2021/09/25 07:54:11;;;;;;;7.07;6.37;;;14.70;99.90;;;;;;5023061;28;20322;-75
2021/09/25 07:56:37;;;;;;;7.03;6.37;;;15.00;99.90;;;;;;5021643;28;20179;-75
2021/09/25 07:59:03;;;;;;;7.43;6.37;;;14.90;99.90;;;;;;5027724;28;20688;-74
2021/09/25 08:01:28;;;;;;;6.50;5.90;;;15.40;99.90;;;;;;5026221;28;20199;-74
2021/09/25 08:03:54;;;;;;;6.70;6.00;;;15.70;99.90;;;;;;5025966;28;20639;-75
2021/09/25 08:06:20;;;;;;;6.50;5.90;;;15.70;99.90;;;;;;5020352;28;20861;-74
2021/09/25 08:08:45;;;;;;;6.23;5.63;;;15.80;99.90;;;;;;5028665;28;20183;-74
2021/09/25 08:11:11;;;;;;;6.60;6.00;;;16.00;99.90;;;;;;5035475;28;20227;-74
2021/09/25 08:13:37;;;;;;;6.80;5.40;;;16.00;99.90;;;;;;5029014;28;20182;-74
2021/09/25 08:16:03;;;;;;;6.97;6.27;;;16.40;99.90;;;;;;5028112;28;20188;-75
2021/09/25 08:18:29;;;;;;;6.80;5.60;;;16.50;99.90;;;;;;5028360;28;20250;-75
2021/09/25 08:20:55;;;;;;;5.93;5.43;;;16.60;99.90;;;;;;5030448;28;20967;-75
2021/09/25 08:23:20;;;;;;;6.20;5.60;;;17.20;99.90;;;;;;5031925;28;20572;-75
2021/09/25 08:25:46;;;;;;;5.83;5.33;;;17.20;99.90;;;;;;5039239;28;20442;-75
2021/09/25 08:28:12;;;;;;;5.97;5.17;;;17.40;99.90;;;;;;5031877;28;20194;-75
2021/09/25 08:30:38;;;;;;;6.00;5.40;;;17.50;99.90;;;;;;5032092;28;20193;-75
2021/09/25 08:33:03;;;;;;;5.40;4.90;;;17.80;99.90;;;;;;5032086;28;20435;-75
2021/09/25 08:35:29;;;;;;;4.70;4.27;;;17.90;99.90;;;;;;5032105;28;20212;-75
2021/09/25 08:37:55;;;;;;;5.47;4.97;;;17.90;99.90;;;;;;5031432;28;20681;-75
2021/09/25 08:40:22;;;;;;;5.50;5.10;;;18.30;99.90;;;;;;5031610;28;20478;-75
2021/09/25 08:42:50;;;;;;;4.90;4.40;;;19.00;99.90;;;;;;5031633;28;20688;-75
2021/09/25 08:45:16;;;;;;;4.80;4.40;;;19.90;99.90;;;;;;5035706;28;21020;-75
2021/09/25 08:47:42;;;;;;;5.57;5.07;;;20.80;99.90;;;;;;5034013;28;20441;-75
2021/09/25 08:50:09;;;;;;;4.87;4.47;;;22.20;99.90;;;;;;5031215;28;20181;-76
2021/09/25 08:52:35;;;;;;;4.80;4.40;;;24.00;93.60;;;;;;5031343;28;20440;-76
2021/09/25 08:55:02;;;;;;;4.77;4.37;;;25.80;74.10;;;;;;5031083;28;20432;-76
2021/09/25 08:57:27;;;;;;;4.77;4.37;;;27.50;62.40;;;;;;5031368;28;20258;-76
2021/09/25 08:59:53;;;;;;;6.37;5.87;;;29.20;52.60;;;;;;5031210;28;21178;-76
2021/09/25 09:02:20;;;;;;;4.90;4.60;;;30.60;47.20;;;;;;5031531;28;20268;-76
2021/09/25 09:04:54;;;;;;;4.80;4.50;;;31.80;41.30;;;;;;5031194;28;20186;-76
2021/09/25 09:07:23;;;;;;;4.47;4.10;;;33.00;38.70;;;;;;5030786;28;20426;-74
2021/09/25 09:09:49;;;;;;;4.80;4.40;;;34.10;37.10;;;;;;5038044;28;20410;-74
2021/09/25 09:12:21;;;;;;;4.20;3.90;;;34.90;33.00;;;;;;5031331;28;20436;-74
2021/09/25 09:14:48;;;;;;;4.67;4.37;;;35.60;31.30;;;;;;5030942;28;20421;-74
2021/09/25 09:17:22;;;;;;;4.50;4.20;;;36.40;30.00;;;;;;5030805;28;20466;-73
2021/09/25 09:19:48;;;;;;;4.93;4.53;;;37.10;28.90;;;;;;5031491;28;20422;-75
2021/09/25 09:22:18;;;;;;;5.17;4.73;;;37.80;27.40;;;;;;5030616;28;20480;-75
2021/09/25 09:24:50;;;;;;;5.83;5.33;;;38.30;26.80;;;;;;5030899;28;20183;-75
2021/09/25 09:27:25;;;;;;;4.40;4.10;;;38.60;26.90;;;;;;5030848;28;20438;-75
2021/09/25 09:30:07;;;;;;;5.07;4.77;;;38.90;26.30;;;;;;5030708;28;20499;-75
2021/09/25 09:32:36;;;;;;;4.30;3.90;;;39.10;26.10;;;;;;5030409;28;20849;-75
2021/09/25 09:35:12;;;;;;;4.70;3.80;;;39.40;25.90;;;;;;5030413;28;20524;-75
2021/09/25 09:37:37;;;;;;;4.13;3.83;;;39.80;25.50;;;;;;5030913;28;20903;-75
2021/09/25 09:40:06;;;;;;;5.00;4.60;;;40.10;24.60;;;;;;5030607;28;21006;-75
2021/09/25 09:42:45;;;;;;;4.60;4.30;;;40.40;24.10;;;;;;5030891;28;20349;-75
2021/09/25 09:45:11;;;;;;;4.13;3.83;;;40.70;23.90;;;;;;5030129;28;20455;-76
2021/09/25 09:47:44;;;;;;;4.50;4.20;;;40.70;23.70;;;;;;5030281;28;20426;-75
2021/09/25 09:50:12;;;;;;;4.60;4.30;;;40.80;23.40;;;;;;5030011;28;20923;-75
2021/09/25 09:52:41;;;;;;;4.40;4.10;;;40.90;23.40;;;;;;5041332;28;20436;-75
2021/09/25 09:55:08;;;;;;;4.23;4.03;;;41.30;23.60;;;;;;5032076;28;20430;-76
2021/09/25 09:57:34;;;;;;;4.77;4.47;;;41.80;23.10;;;;;;5029687;28;20939;-75
2021/09/25 10:00:01;;;;;;;4.90;4.60;;;42.30;22.30;;;;;;5029695;28;20436;-76
2021/09/25 10:02:26;;;;;;;4.80;4.50;;;42.70;21.90;;;;;;5030453;28;20461;-76
2021/09/25 10:04:52;;;;;;;5.50;5.10;;;42.80;21.70;;;;;;5029653;28;20784;-76
2021/09/25 10:07:18;;;;;;;4.30;4.00;;;43.10;21.30;;;;;;5029900;28;20183;-76
2021/09/25 10:09:44;;;;;;;5.07;4.73;;;43.20;21.50;;;;;;5029681;28;20194;-76
2021/09/25 10:12:15;;;;;;;5.23;4.90;;;43.40;20.90;;;;;;5029343;28;20944;-76
2021/09/25 10:14:45;;;;;;;4.80;4.50;;;43.30;21.00;;;;;;5029340;28;20179;-76
2021/09/25 10:17:13;;;;;;;4.40;4.10;;;43.30;21.00;;;;;;5029885;28;20507;-75
2021/09/25 10:19:41;;;;;;;5.30;5.00;;;43.50;21.20;;;;;;5030679;28;20505;-75
2021/09/25 10:22:13;;;;;;;4.87;4.57;;;43.90;21.00;;;;;;5029529;28;20830;-75
2021/09/25 10:24:59;;;;;;;5.57;5.27;;;44.20;20.50;;;;;;5029973;28;20417;-75
2021/09/25 10:27:33;;;;;;;5.07;4.77;;;44.40;20.20;;;;;;5029782;28;20425;-76
2021/09/25 10:30:02;;;;;;;5.47;5.17;;;44.90;20.50;;;;;;5033102;28;20464;-74
2021/09/25 10:32:31;;;;;;;5.30;5.00;;;45.30;20.00;;;;;;5036135;28;20473;-74
2021/09/25 10:35:03;;;;;;;5.17;4.77;;;45.70;19.50;;;;;;5040335;28;20464;-75
2021/09/25 10:37:51;;;;;;;5.30;4.90;;;45.70;19.20;;;;;;5030007;28;20480;-76
2021/09/25 10:40:28;;;;;;;4.70;4.40;;;45.90;19.20;;;;;;5030665;28;20454;-75
2021/09/25 10:42:56;;;;;;;4.57;4.27;;;46.20;19.20;;;;;;5037150;28;20430;-77
2021/09/25 10:45:37;;;;;;;4.77;4.47;;;46.50;18.90;;;;;;5035702;28;20867;-77
2021/09/25 10:48:15;;;;;;;4.77;4.47;;;46.60;18.50;;;;;;5030268;28;20436;-76
2021/09/25 10:50:50;;;;;;;5.10;4.70;;;46.70;18.80;;;;;;5030075;28;20469;-77
2021/09/25 10:53:39;;;;;;;4.10;3.90;;;46.90;18.30;;;;;;5029545;28;20456;-77
2021/09/25 10:56:06;;;;;;;5.37;4.87;;;46.90;18.10;;;;;;5030145;28;20537;-77
2021/09/25 10:58:34;;;;;;;4.77;4.47;;;46.90;18.30;;;;;;5029696;28;20767;-76
2021/09/25 11:01:07;;;;;;;4.83;4.53;;;47.00;18.40;;;;;;5032588;28;20936;-76
2021/09/25 11:06:08;;;;;;;4.80;4.50;;;46.70;18.50;;;;;;5028976;28;20469;-78
2021/09/25 11:08:35;;;;;;;4.60;4.30;;;46.70;18.40;;;;;;5030008;28;20990;-78
2021/09/25 11:11:14;;;;;;;5.20;4.90;;;46.70;19.00;;;;;;5030103;28;20488;-78
2021/09/25 11:14:02;;;;;;;4.10;3.90;;;46.50;19.00;;;;;;5028904;28;20444;-77
2021/09/25 11:16:46;;;;;;;4.20;4.00;;;46.40;18.70;;;;;;5028959;28;20432;-78
2021/09/25 11:19:21;;;;;;;5.40;5.07;;;45.60;18.80;;;;;;5029114;28;20857;-77
2021/09/25 11:21:57;;;;;;;5.40;5.10;;;44.80;19.60;;;;;;5031248;28;20439;-78
2021/09/25 11:24:23;;;;;;;4.70;4.40;;;45.00;20.30;;;;;;5028879;28;20434;-78
2021/09/25 11:26:50;;;;;;;4.97;4.57;;;45.10;19.70;;;;;;5029130;28;20437;-78
2021/09/25 11:29:16;;;;;;;4.60;4.30;;;45.30;20.10;;;;;;5029148;28;20924;-78
2021/09/25 11:31:47;;;;;;;4.77;4.40;;;45.80;19.70;;;;;;5032779;28;20484;-78
2021/09/25 11:34:24;;;;;;;4.70;4.40;;;45.70;19.40;;;;;;5028900;28;21171;-78
2021/09/25 11:37:00;;;;;;;5.10;4.80;;;45.90;19.60;;;;;;5029700;28;20429;-78
2021/09/25 11:39:44;;;;;;;4.90;4.50;;;46.40;19.00;;;;;;5033635;28;20939;-78
2021/09/25 11:42:19;;;;;;;4.57;4.27;;;47.00;19.20;;;;;;5030923;28;20991;-78
2021/09/25 11:44:57;;;;;;;4.77;4.40;;;47.30;18.00;;;;;;5028857;28;20528;-78
2021/09/25 11:47:26;;;;;;;4.60;4.40;;;47.30;18.20;;;;;;5035340;28;20510;-78
2021/09/25 11:49:54;;;;;;;4.90;4.60;;;47.40;17.70;;;;;;5030135;28;20433;-79
2021/09/25 11:52:19;;;;;;;4.63;4.33;;;47.60;17.80;;;;;;5037184;28;20473;-79
2021/09/25 11:54:46;;;;;;;4.57;4.27;;;48.00;17.60;;;;;;5029164;28;20451;-79
2021/09/25 11:57:22;;;;;;;4.20;3.90;;;48.10;16.80;;;;;;5030716;28;20187;-82
2021/09/25 11:59:48;;;;;;;3.80;3.60;;;48.10;16.80;;;;;;5049495;28;20424;-90
2021/09/25 12:02:49;;;;;;;4.63;4.33;;;48.30;17.50;;;;;;5040110;28;20499;-89
2021/09/25 12:05:44;;;;;;;4.50;4.20;;;48.60;16.50;;;;;;5034659;28;20481;-89
2021/09/25 12:08:23;;;;;;;4.07;3.77;;;48.90;16.70;;;;;;5044167;28;20450;-88
2021/09/25 12:10:51;;;;;;;4.13;3.93;;;49.10;16.30;;;;;;5038040;28;20523;-81
2021/09/25 12:13:28;;;;;;;4.60;4.30;;;49.40;16.40;;;;;;5034043;28;20798;-80
2021/09/25 12:16:01;;;;;;;3.70;3.50;;;49.40;16.20;;;;;;5032202;28;20456;-80
2021/09/25 12:18:34;;;;;;;4.00;3.70;;;49.10;16.00;;;;;;5040952;28;20488;-80
2021/09/25 12:21:04;;;;;;;4.20;3.90;;;49.20;16.20;;;;;;5044745;28;20433;-89
2021/09/25 12:23:31;;;;;;;3.80;3.60;;;49.10;15.90;;;;;;5037177;28;20429;-82
2021/09/25 12:25:58;;;;;;;3.50;3.30;;;49.10;15.90;;;;;;5033831;28;20516;-81
2021/09/25 12:28:39;;;;;;;3.20;3.00;;;49.40;15.20;;;;;;5041250;28;20418;-89
2021/09/25 12:31:09;;;;;;;3.70;3.10;;;49.40;15.00;;;;;;5039445;28;20968;-91
2021/09/25 12:33:36;;;;;;;2.83;2.70;;;49.60;15.00;;;;;;5058456;28;20425;-90
2021/09/25 12:36:05;;;;;;;3.30;3.10;;;49.70;15.20;;;;;;5034305;28;20470;-87
2021/09/25 12:38:46;;;;;;;3.70;3.40;;;49.80;15.10;;;;;;5038347;28;20858;-90
2021/09/25 12:41:21;;;;;;;3.30;3.13;;;49.50;14.90;;;;;;5037093;28;20450;-91
2021/09/25 12:43:56;;;;;;;3.33;3.10;;;49.50;15.00;;;;;;5037433;28;20444;-91
2021/09/25 12:46:29;;;;;;;3.17;2.97;;;49.60;14.30;;;;;;5032292;28;20548;-82
2021/09/25 12:49:05;;;;;;;3.43;3.20;;;49.40;14.40;;;;;;5033609;28;20446;-93
2021/09/25 12:51:34;;;;;;;3.00;2.80;;;49.10;14.80;;;;;;5038564;28;20556;-86
2021/09/25 12:54:02;;;;;;;4.00;3.73;;;48.80;15.20;;;;;;5063132;28;20589;-88
2021/09/25 12:56:35;;;;;;;3.57;3.07;;;48.80;15.50;;;;;;5056792;28;20473;-87